createdAt,value
2023-01-26T00:01:21.748Z,1.81
2023-01-26T00:03:49.646Z,1.83
2023-01-26T00:06:18.781Z,1.97
2023-01-26T00:08:47.292Z,2.03
2023-01-26T00:11:16.559Z,2.03
2023-01-26T00:13:44.021Z,1.88
2023-01-26T00:16:13.149Z,1.95
2023-01-26T00:18:42.688Z,1.93
2023-01-26T00:21:12.979Z,1.84
2023-01-26T00:23:40.472Z,2.03
2023-01-26T00:26:08.344Z,1.99
2023-01-26T00:28:35.743Z,1.90
2023-01-26T00:31:04.496Z,1.97
2023-01-26T00:33:32.261Z,2.08
2023-01-26T00:36:01.209Z,2.12
2023-01-26T00:38:28.612Z,2.13
2023-01-26T00:40:56.045Z,2.12
2023-01-26T00:43:23.413Z,1.96
2023-01-26T00:45:50.835Z,2.12
2023-01-26T00:48:18.298Z,2.09
2023-01-26T00:50:45.731Z,2.08
2023-01-26T00:53:14.520Z,2.06
2023-01-26T00:55:41.918Z,2.06
2023-01-26T00:58:10.057Z,2.07
2023-01-26T01:00:39.100Z,2.16
2023-01-26T01:03:07.085Z,2.07
2023-01-26T01:05:35.191Z,2.06
2023-01-26T01:08:03.109Z,2.02
2023-01-26T01:10:31.848Z,1.94
2023-01-26T01:12:59.227Z,2.11
2023-01-26T01:15:26.590Z,1.91
2023-01-26T01:17:53.950Z,1.95
2023-01-26T01:20:21.557Z,2.05
2023-01-26T01:22:48.933Z,1.98
2023-01-26T01:25:16.481Z,1.99
2023-01-26T01:27:45.263Z,2.12
2023-01-26T01:30:14.453Z,2.15
2023-01-26T01:32:42.120Z,2.16
2023-01-26T01:35:10.081Z,1.91
2023-01-26T01:37:37.651Z,2.11
2023-01-26T01:40:05.712Z,2.13
2023-01-26T01:42:34.724Z,2.07
2023-01-26T01:45:47.724Z,2.16
2023-01-26T01:48:21.806Z,2.13
2023-01-26T01:50:50.792Z,2.13
2023-01-26T01:53:24.441Z,1.93
2023-01-26T01:55:54.224Z,1.83
2023-01-26T01:58:21.764Z,1.85
2023-01-26T02:00:49.376Z,1.74
2023-01-26T02:03:21.155Z,2.01
2023-01-26T02:05:54.474Z,1.95
2023-01-26T02:08:25.550Z,2.04
2023-01-26T02:10:55.810Z,2.02
2023-01-26T02:13:23.994Z,1.99
2023-01-26T02:15:52.240Z,1.98
2023-01-26T02:18:21.521Z,2.10
2023-01-26T02:20:51.929Z,2.19
2023-01-26T02:23:26.222Z,1.95
2023-01-26T02:26:09.140Z,2.22
2023-01-26T02:28:36.557Z,2.14
2023-01-26T02:31:04.753Z,2.02
2023-01-26T02:33:33.518Z,2.18
2023-01-26T02:36:02.641Z,2.19
2023-01-26T02:38:34.022Z,2.21
2023-01-26T02:41:03.923Z,2.16
2023-01-26T02:43:32.094Z,2.04
2023-01-26T02:45:59.873Z,2.21
2023-01-26T02:48:45.097Z,2.03
2023-01-26T02:51:12.627Z,2.14
2023-01-26T02:53:40.068Z,2.12
2023-01-26T02:56:07.006Z,2.15
2023-01-26T02:58:36.229Z,2.23
2023-01-26T03:01:03.699Z,2.12
2023-01-26T03:03:42.375Z,2.29
2023-01-26T03:06:10.575Z,2.18
2023-01-26T03:08:38.245Z,1.95
2023-01-26T03:11:06.745Z,2.17
2023-01-26T03:13:35.716Z,2.23
2023-01-26T03:16:06.936Z,2.30
2023-01-26T03:18:53.001Z,2.20
2023-01-26T03:21:37.751Z,2.26
2023-01-26T03:24:23.648Z,2.25
2023-01-26T03:27:16.799Z,2.14
2023-01-26T03:29:45.942Z,2.23
2023-01-26T03:32:13.742Z,2.20
2023-01-26T03:34:41.189Z,2.26
2023-01-26T03:37:08.586Z,2.11
2023-01-26T03:39:53.362Z,2.24
2023-01-26T03:42:38.637Z,2.23
2023-01-26T03:45:26.324Z,2.08
2023-01-26T03:48:11.158Z,1.99
2023-01-26T03:50:55.890Z,2.07
2023-01-26T03:53:42.549Z,2.15
2023-01-26T03:56:22.124Z,2.12
2023-01-26T03:58:52.253Z,2.10
2023-01-26T04:01:25.919Z,2.28
2023-01-26T04:04:11.565Z,2.28
2023-01-26T04:06:57.726Z,2.15
2023-01-26T04:09:25.440Z,2.25
2023-01-26T04:11:52.811Z,2.31
2023-01-26T04:14:49.650Z,2.12
2023-01-26T04:17:37.320Z,2.26
2023-01-26T04:20:23.707Z,2.02
2023-01-26T04:22:51.067Z,2.12
2023-01-26T04:25:19.949Z,2.23
2023-01-26T04:27:47.398Z,2.11
2023-01-26T04:30:16.406Z,2.16
2023-01-26T04:32:47.109Z,2.28
2023-01-26T04:35:14.525Z,2.36
2023-01-26T04:37:41.927Z,2.33
2023-01-26T04:40:10.968Z,2.33
2023-01-26T04:42:38.814Z,2.33
2023-01-26T04:45:06.909Z,2.22
2023-01-26T04:47:34.370Z,2.18
2023-01-26T04:50:03.162Z,2.30
2023-01-26T04:52:30.534Z,2.34
2023-01-26T04:54:57.893Z,2.46
2023-01-26T04:57:25.290Z,2.16
2023-01-26T04:59:54.814Z,2.10
2023-01-26T05:02:22.188Z,2.25
2023-01-26T05:04:49.599Z,2.36
2023-01-26T05:07:18.309Z,2.30
2023-01-26T05:09:45.690Z,2.31
2023-01-26T05:12:30.451Z,2.26
2023-01-26T05:14:57.826Z,2.28
2023-01-26T05:17:25.253Z,2.20
2023-01-26T05:19:52.613Z,2.36
2023-01-26T05:22:21.390Z,2.26
2023-01-26T05:24:48.789Z,2.22
2023-01-26T05:27:22.066Z,2.24
2023-01-26T05:29:49.894Z,2.37
2023-01-26T05:32:17.457Z,2.36
2023-01-26T05:34:44.863Z,2.20
2023-01-26T05:37:14.640Z,2.34
2023-01-26T05:39:43.789Z,2.41
2023-01-26T05:42:12.040Z,2.42
2023-01-26T05:44:39.787Z,2.42
2023-01-26T05:47:07.573Z,2.47
2023-01-26T05:49:35.030Z,2.44
2023-01-26T05:52:02.446Z,2.45
2023-01-26T05:54:29.838Z,2.50
2023-01-26T05:56:58.541Z,2.51
2023-01-26T05:59:26.008Z,2.43
2023-01-26T06:01:53.461Z,2.43
2023-01-26T06:04:21.211Z,2.26
2023-01-26T06:06:48.770Z,2.45
2023-01-26T06:09:16.557Z,2.29
2023-01-26T06:11:44.019Z,2.27
2023-01-26T06:14:12.788Z,2.25
2023-01-26T06:16:40.481Z,2.39
2023-01-26T06:19:08.622Z,2.49
2023-01-26T06:21:36.078Z,2.42
2023-01-26T06:24:03.763Z,2.33
2023-01-26T06:26:39.350Z,2.39
2023-01-26T06:29:07.276Z,2.50
2023-01-26T06:31:37.344Z,2.41
2023-01-26T06:34:05.664Z,2.47
2023-01-26T06:36:33.122Z,2.43
2023-01-26T06:39:00.947Z,2.56
2023-01-26T06:41:28.451Z,2.53
2023-01-26T06:43:55.864Z,2.57
2023-01-26T06:46:23.300Z,2.52
2023-01-26T06:48:52.071Z,2.38
2023-01-26T06:51:45.711Z,2.56
2023-01-26T06:54:14.231Z,2.18
2023-01-26T06:56:42.113Z,2.37
2023-01-26T06:59:10.719Z,2.38
2023-01-26T07:01:42.521Z,2.46
2023-01-26T07:04:11.557Z,2.51
2023-01-26T07:06:39.110Z,2.49
2023-01-26T07:09:06.509Z,2.50
2023-01-26T07:11:33.914Z,2.52
2023-01-26T07:14:01.289Z,2.50
2023-01-26T07:16:28.919Z,2.55
2023-01-26T07:18:56.948Z,2.58
2023-01-26T07:21:25.634Z,2.55
2023-01-26T07:23:54.088Z,2.56
2023-01-26T07:26:21.777Z,2.58
2023-01-26T07:28:49.164Z,2.54
2023-01-26T07:31:16.714Z,2.61
2023-01-26T07:33:44.563Z,2.49
2023-01-26T07:36:12.007Z,2.56
2023-01-26T07:38:40.713Z,2.62
2023-01-26T07:41:09.965Z,2.51
2023-01-26T07:43:38.445Z,2.58
2023-01-26T07:46:06.553Z,2.44
2023-01-26T07:48:34.211Z,2.55
2023-01-26T07:51:03.451Z,2.62
2023-01-26T07:53:34.253Z,2.54
2023-01-26T07:56:14.372Z,2.45
2023-01-26T07:58:41.888Z,2.59
2023-01-26T08:01:10.955Z,2.52
2023-01-26T08:03:38.903Z,2.50
2023-01-26T08:06:06.974Z,2.49
2023-01-26T08:08:34.581Z,2.43
2023-01-26T08:11:02.673Z,2.54
2023-01-26T08:13:35.779Z,2.41
2023-01-26T08:16:05.404Z,2.46
2023-01-26T08:18:32.906Z,2.35
2023-01-26T08:21:00.442Z,2.44
2023-01-26T08:23:28.090Z,2.40
2023-01-26T08:25:55.544Z,2.56
2023-01-26T08:28:23.343Z,2.52
2023-01-26T08:30:52.127Z,2.47
2023-01-26T08:33:19.554Z,2.53
2023-01-26T08:35:46.935Z,2.51
2023-01-26T08:38:14.291Z,2.56
2023-01-26T08:40:42.332Z,2.66
2023-01-26T08:43:09.690Z,2.57
2023-01-26T08:45:37.107Z,2.61
2023-01-26T08:48:06.864Z,2.60
2023-01-26T08:50:34.194Z,2.45
2023-01-26T08:53:01.590Z,2.53
2023-01-26T08:55:29.610Z,2.42
2023-01-26T08:57:57.552Z,2.36
2023-01-26T09:00:25.649Z,2.37
2023-01-26T09:02:59.493Z,2.46
2023-01-26T09:05:28.826Z,2.54
2023-01-26T09:07:56.240Z,2.51
2023-01-26T09:10:23.673Z,2.41
2023-01-26T09:12:51.310Z,2.53
2023-01-26T09:15:18.687Z,2.41
2023-01-26T09:17:49.163Z,2.57
2023-01-26T09:20:16.835Z,2.60
2023-01-26T09:22:45.775Z,2.60
2023-01-26T09:25:13.681Z,2.47
2023-01-26T09:27:41.368Z,2.64
2023-01-26T09:30:10.146Z,2.59
2023-01-26T09:32:37.683Z,2.63
2023-01-26T09:35:05.813Z,2.54
2023-01-26T09:37:33.159Z,2.52
2023-01-26T09:40:01.874Z,2.61
2023-01-26T09:42:50.858Z,2.62
2023-01-26T09:45:25.551Z,2.65
2023-01-26T09:48:03.035Z,2.59
2023-01-26T09:50:32.586Z,2.69
2023-01-26T09:53:03.857Z,2.68
2023-01-26T09:55:32.557Z,2.61
2023-01-26T09:58:02.063Z,2.54
2023-01-26T10:00:32.242Z,2.64
2023-01-26T10:03:14.863Z,2.63
2023-01-26T10:05:46.565Z,2.57
2023-01-26T10:08:15.964Z,2.61
2023-01-26T10:10:49.278Z,2.47
2023-01-26T10:13:17.350Z,2.65
2023-01-26T10:15:46.744Z,2.57
2023-01-26T10:18:18.845Z,2.48
2023-01-26T10:20:49.013Z,2.64
2023-01-26T10:23:18.497Z,2.54
2023-01-26T10:25:47.789Z,2.71
2023-01-26T10:28:16.633Z,2.73
2023-01-26T10:30:45.863Z,2.73
2023-01-26T10:33:21.525Z,2.71
2023-01-26T10:35:48.923Z,2.65
2023-01-26T10:38:41.191Z,2.70
2023-01-26T10:41:23.214Z,2.72
2023-01-26T10:43:53.041Z,2.65
2023-01-26T10:46:26.163Z,2.80
2023-01-26T10:48:54.255Z,2.84
2023-01-26T10:51:26.325Z,2.71
2023-01-26T10:54:21.430Z,2.63
2023-01-26T10:56:52.510Z,2.75
2023-01-26T10:59:26.450Z,2.74
2023-01-26T11:01:55.856Z,2.77
2023-01-26T11:04:23.545Z,2.83
2023-01-26T11:06:51.150Z,2.84
2023-01-26T11:09:20.843Z,2.76
2023-01-26T11:12:03.676Z,2.63
2023-01-26T11:14:32.342Z,2.66
2023-01-26T11:17:06.106Z,2.55
2023-01-26T11:19:52.104Z,2.65
2023-01-26T11:22:21.809Z,2.66
2023-01-26T11:24:52.798Z,2.90
2023-01-26T11:27:29.798Z,2.81
2023-01-26T11:30:16.938Z,2.68
2023-01-26T11:32:48.404Z,2.56
2023-01-26T11:35:31.010Z,2.69
2023-01-26T11:38:04.573Z,2.74
2023-01-26T11:40:37.816Z,2.76
2023-01-26T11:43:34.745Z,2.71
2023-01-26T11:46:08.993Z,2.76
2023-01-26T11:48:45.053Z,2.81
2023-01-26T11:51:17.339Z,2.77
2023-01-26T11:54:02.703Z,2.90
2023-01-26T11:56:38.240Z,2.83
2023-01-26T11:59:11.173Z,2.83
2023-01-26T12:01:41.206Z,2.77
2023-01-26T12:04:15.976Z,2.76
2023-01-26T12:06:45.494Z,2.81
2023-01-26T12:09:18.866Z,2.82
2023-01-26T12:11:51.114Z,2.81
2023-01-26T12:14:23.498Z,2.71
2023-01-26T12:17:16.839Z,2.89
2023-01-26T12:19:50.320Z,2.91
2023-01-26T12:22:21.841Z,2.85
2023-01-26T12:25:17.382Z,2.85
2023-01-26T12:27:44.431Z,2.84
2023-01-26T12:30:25.715Z,2.82
2023-01-26T12:32:53.570Z,2.86
2023-01-26T12:35:29.413Z,2.71
2023-01-26T12:38:16.710Z,2.83
2023-01-26T12:40:53.153Z,2.86
2023-01-26T12:43:26.955Z,2.90
2023-01-26T12:45:58.650Z,2.73
2023-01-26T12:48:34.428Z,2.88
2023-01-26T12:51:05.451Z,2.86
2023-01-26T12:53:37.930Z,2.86
2023-01-26T12:56:11.190Z,2.83
2023-01-26T12:58:40.418Z,2.71
2023-01-26T13:01:13.328Z,2.87
2023-01-26T13:03:42.099Z,2.94
2023-01-26T13:06:20.827Z,2.82
2023-01-26T13:08:53.642Z,2.89
2023-01-26T13:11:46.717Z,2.68
2023-01-26T13:14:31.789Z,2.83
2023-01-26T13:17:42.364Z,2.89
2023-01-26T13:20:41.180Z,2.87
2023-01-26T13:23:52.404Z,2.87
2023-01-26T13:26:44.535Z,2.99
2023-01-26T13:29:31.650Z,2.88
2023-01-26T13:32:02.588Z,2.87
2023-01-26T13:34:33.405Z,2.90
2023-01-26T13:37:06.083Z,2.75
2023-01-26T13:39:36.353Z,2.96
2023-01-26T13:42:11.406Z,2.96
2023-01-26T13:44:41.428Z,2.91
2023-01-26T13:47:12.989Z,2.86
2023-01-26T13:49:41.685Z,2.97
2023-01-26T13:52:17.697Z,2.87
2023-01-26T13:54:45.580Z,2.96
2023-01-26T13:57:14.282Z,2.93
2023-01-26T13:59:50.181Z,2.95
2023-01-26T14:02:27.151Z,2.85
2023-01-26T14:04:57.902Z,3.00
2023-01-26T14:07:27.668Z,2.99
2023-01-26T14:09:56.978Z,3.06
2023-01-26T14:12:25.686Z,3.03
2023-01-26T14:14:54.846Z,3.06
2023-01-26T14:17:29.184Z,3.05
2023-01-26T14:19:57.053Z,3.00
2023-01-26T14:22:24.942Z,3.06
2023-01-26T14:24:53.475Z,3.09
2023-01-26T14:27:30.816Z,3.10
2023-01-26T14:29:59.074Z,3.12
2023-01-26T14:32:29.695Z,3.20
2023-01-26T14:34:58.837Z,3.08
2023-01-26T14:37:26.752Z,3.12
2023-01-26T14:40:19.526Z,3.12
2023-01-26T14:42:47.374Z,3.12
2023-01-26T14:45:15.110Z,3.12
2023-01-26T14:47:45.200Z,2.94
2023-01-26T14:50:15.704Z,2.99
2023-01-26T14:52:45.920Z,3.11
2023-01-26T14:55:17.725Z,3.03
2023-01-26T14:57:45.076Z,3.10
2023-01-26T15:00:22.459Z,3.14
2023-01-26T15:02:53.546Z,3.17
2023-01-26T15:05:22.987Z,3.20
2023-01-26T15:07:52.567Z,3.18
2023-01-26T15:10:29.421Z,3.06
2023-01-26T15:12:58.996Z,3.18
2023-01-26T15:15:28.969Z,3.09
2023-01-26T15:18:06.726Z,3.07
2023-01-26T15:20:39.392Z,3.20
2023-01-26T15:23:21.341Z,3.14
2023-01-26T15:25:48.751Z,3.11
2023-01-26T15:28:18.425Z,3.26
2023-01-26T15:30:48.950Z,3.01
2023-01-26T15:33:40.434Z,2.96
2023-01-26T15:36:27.806Z,3.08
2023-01-26T15:39:00.966Z,2.95
2023-01-26T15:41:28.935Z,3.05
2023-01-26T15:43:56.308Z,3.03
2023-01-26T15:46:23.838Z,3.08
2023-01-26T15:48:52.728Z,3.07
2023-01-26T15:51:20.199Z,2.96
2023-01-26T15:53:47.574Z,2.93
2023-01-26T15:56:16.492Z,2.94
2023-01-26T15:58:44.284Z,2.95
2023-01-26T16:01:15.748Z,3.02
2023-01-26T16:03:43.135Z,2.95
2023-01-26T16:06:22.370Z,2.97
2023-01-26T16:08:50.035Z,2.95
2023-01-26T16:11:18.011Z,3.01
2023-01-26T16:13:57.300Z,3.00
2023-01-26T16:16:30.071Z,3.16
2023-01-26T16:18:57.601Z,3.06
2023-01-26T16:21:28.680Z,3.14
2023-01-26T16:23:56.068Z,3.03
2023-01-26T16:26:23.633Z,2.99
2023-01-26T16:28:50.984Z,2.98
2023-01-26T16:31:20.578Z,3.16
2023-01-26T16:33:48.644Z,2.98
2023-01-26T16:36:17.109Z,3.04
2023-01-26T16:38:46.669Z,3.04
2023-01-26T16:41:16.473Z,3.09
2023-01-26T16:43:44.114Z,2.87
2023-01-26T16:46:11.931Z,3.01
2023-01-26T16:48:40.320Z,2.91
2023-01-26T16:51:17.989Z,3.05
2023-01-26T16:53:47.192Z,2.89
2023-01-26T16:56:16.417Z,3.03
2023-01-26T16:58:43.858Z,3.20
2023-01-26T17:01:18.292Z,3.16
2023-01-26T17:03:45.914Z,3.19
2023-01-26T17:06:13.383Z,3.27
2023-01-26T17:08:41.189Z,3.20
2023-01-26T17:11:13.976Z,3.34
2023-01-26T17:13:41.295Z,3.35
2023-01-26T17:16:12.565Z,3.28
2023-01-26T17:18:39.978Z,3.31
2023-01-26T17:21:07.481Z,3.34
2023-01-26T17:23:37.293Z,3.43
2023-01-26T17:26:04.953Z,3.37
2023-01-26T17:28:33.656Z,3.33
2023-01-26T17:31:01.610Z,3.37
2023-01-26T17:33:29.591Z,3.41
2023-01-26T17:36:00.574Z,3.33
2023-01-26T17:38:28.078Z,3.27
2023-01-26T17:40:56.469Z,3.31
2023-01-26T17:43:24.109Z,3.42
2023-01-26T17:46:01.912Z,3.23
2023-01-26T17:48:29.875Z,3.29
2023-01-26T17:50:57.710Z,3.19
2023-01-26T17:53:25.395Z,3.22
2023-01-26T17:55:53.203Z,3.26
2023-01-26T17:58:20.612Z,3.26
2023-01-26T18:00:48.129Z,3.21
2023-01-26T18:03:17.387Z,3.30
2023-01-26T18:05:51.499Z,3.39
2023-01-26T18:08:19.410Z,3.21
2023-01-26T18:10:47.108Z,3.19
2023-01-26T18:13:15.162Z,3.15
2023-01-26T18:15:52.304Z,3.13
2023-01-26T18:18:21.598Z,3.12
2023-01-26T18:20:49.115Z,3.18
2023-01-26T18:23:16.516Z,3.26
2023-01-26T18:25:44.313Z,3.29
2023-01-26T18:28:11.710Z,3.30
2023-01-26T18:30:40.129Z,3.41
2023-01-26T18:33:08.387Z,3.33
2023-01-26T18:35:37.238Z,3.36
2023-01-26T18:38:04.735Z,3.36
2023-01-26T18:40:32.186Z,3.32
2023-01-26T18:42:59.662Z,3.41
2023-01-26T18:45:27.206Z,3.39
2023-01-26T18:47:54.651Z,3.34
2023-01-26T18:50:22.193Z,3.38
2023-01-26T18:52:52.276Z,3.22
2023-01-26T18:55:20.194Z,3.32
2023-01-26T18:57:49.311Z,3.32
2023-01-26T19:00:17.469Z,3.43
2023-01-26T19:02:44.991Z,3.39
2023-01-26T19:05:12.867Z,3.47
2023-01-26T19:07:41.140Z,3.38
2023-01-26T19:10:11.238Z,3.45
2023-01-26T19:12:38.573Z,3.45
2023-01-26T19:15:07.501Z,3.33
2023-01-26T19:17:35.053Z,3.36
2023-01-26T19:20:02.646Z,3.35
2023-01-26T19:22:30.037Z,3.50
2023-01-26T19:24:58.035Z,3.53
2023-01-26T19:27:26.753Z,3.54
2023-01-26T19:29:54.308Z,3.42
2023-01-26T19:32:21.650Z,3.31
2023-01-26T19:34:49.035Z,3.35
2023-01-26T19:37:16.560Z,3.43
2023-01-26T19:39:43.901Z,3.41
2023-01-26T19:42:11.258Z,3.44
2023-01-26T19:44:39.921Z,3.46
2023-01-26T19:47:07.331Z,3.34
2023-01-26T19:49:34.688Z,3.39
2023-01-26T19:52:04.275Z,3.38
2023-01-26T19:54:31.670Z,3.35
2023-01-26T19:56:59.026Z,3.32
2023-01-26T19:59:27.293Z,3.40
2023-01-26T20:01:56.547Z,3.40
2023-01-26T20:04:23.964Z,3.46
2023-01-26T20:06:51.412Z,3.40
2023-01-26T20:09:18.759Z,3.43
2023-01-26T20:11:46.227Z,3.28
2023-01-26T20:14:13.610Z,3.49
2023-01-26T20:16:41.796Z,3.52
2023-01-26T20:19:11.915Z,3.50
2023-01-26T20:21:40.226Z,3.57
2023-01-26T20:24:09.128Z,3.53
2023-01-26T20:26:37.181Z,3.59
2023-01-26T20:29:04.686Z,3.58
2023-01-26T20:31:32.961Z,3.57
2023-01-26T20:34:03.088Z,3.59
2023-01-26T20:36:32.808Z,3.48
2023-01-26T20:39:01.181Z,3.58
2023-01-26T20:41:30.049Z,3.55
2023-01-26T20:44:00.879Z,3.57
2023-01-26T20:46:29.467Z,3.59
2023-01-26T20:48:57.245Z,3.64
2023-01-26T20:51:29.277Z,3.59
2023-01-26T20:53:58.451Z,3.58
2023-01-26T20:56:26.305Z,3.52
2023-01-26T20:58:55.181Z,3.61
2023-01-26T21:01:23.679Z,3.69
2023-01-26T21:03:51.450Z,3.72
2023-01-26T21:06:20.003Z,3.76
2023-01-26T21:08:47.734Z,3.65
2023-01-26T21:11:18.094Z,3.73
2023-01-26T21:13:45.619Z,3.65
2023-01-26T21:16:14.515Z,3.59
2023-01-26T21:18:42.435Z,3.70
2023-01-26T21:21:12.315Z,3.74
2023-01-26T21:23:39.769Z,3.70
2023-01-26T21:26:10.715Z,3.78
2023-01-26T21:28:39.604Z,3.78
2023-01-26T21:31:08.722Z,3.77
2023-01-26T21:33:38.230Z,3.84
2023-01-26T21:36:07.234Z,3.71
2023-01-26T21:38:36.056Z,3.72
2023-01-26T21:41:25.281Z,3.83
2023-01-26T21:43:56.789Z,3.75
2023-01-26T21:46:24.466Z,3.84
2023-01-26T21:48:51.906Z,3.92
2023-01-26T21:51:37.813Z,3.83
2023-01-26T21:54:06.832Z,3.82
2023-01-26T21:56:34.375Z,3.86
2023-01-26T21:59:04.611Z,3.93
2023-01-26T22:01:33.579Z,3.90
2023-01-26T22:04:02.514Z,3.98
2023-01-26T22:06:30.831Z,3.89
2023-01-26T22:08:59.097Z,3.88
2023-01-26T22:11:27.091Z,3.90
2023-01-26T22:13:54.860Z,3.95
2023-01-26T22:16:24.150Z,3.96
2023-01-26T22:18:51.737Z,3.97
2023-01-26T22:21:19.583Z,4.03
2023-01-26T22:23:47.288Z,4.04
2023-01-26T22:26:16.355Z,3.94
2023-01-26T22:28:49.973Z,3.98
2023-01-26T22:31:19.605Z,3.98
2023-01-26T22:33:48.463Z,3.92
2023-01-26T22:36:16.946Z,3.91
2023-01-26T22:38:44.565Z,3.93
2023-01-26T22:41:14.498Z,3.94
2023-01-26T22:43:42.221Z,4.00
2023-01-26T22:46:11.435Z,3.92
2023-01-26T22:48:39.134Z,4.05
2023-01-26T22:51:12.046Z,3.97
2023-01-26T22:53:39.884Z,4.00
2023-01-26T22:56:08.508Z,4.15
2023-01-26T22:58:44.787Z,4.10
2023-01-26T23:01:23.697Z,4.11
2023-01-26T23:03:51.694Z,4.06
2023-01-26T23:06:21.216Z,4.17
2023-01-26T23:08:48.717Z,4.02
2023-01-26T23:11:17.619Z,4.13
2023-01-26T23:13:45.928Z,4.03
2023-01-26T23:16:13.800Z,4.05
2023-01-26T23:18:42.021Z,4.10
2023-01-26T23:21:10.358Z,4.08
2023-01-26T23:23:39.968Z,4.17
2023-01-26T23:26:07.605Z,4.11
2023-01-26T23:28:36.858Z,4.15
2023-01-26T23:31:04.452Z,4.25
2023-01-26T23:33:33.358Z,4.19
2023-01-26T23:36:00.872Z,4.19
2023-01-26T23:38:29.508Z,4.28
2023-01-26T23:41:00.323Z,4.29
2023-01-26T23:43:27.963Z,4.13
2023-01-26T23:45:56.388Z,4.18
2023-01-26T23:48:24.467Z,4.18
2023-01-26T23:50:56.094Z,4.22
2023-01-26T23:53:24.047Z,4.28
2023-01-26T23:55:51.601Z,4.35
2023-01-26T23:58:20.803Z,4.28
